createdAt,value
2023-04-09T00:01:42.153Z,101874.56
2023-04-09T00:04:08.681Z,101879.31
2023-04-09T00:06:35.202Z,101874.84
2023-04-09T00:09:01.669Z,101873.13
2023-04-09T00:11:28.086Z,101872.56
2023-04-09T00:13:54.648Z,101880.47
2023-04-09T00:16:21.862Z,101881.75
2023-04-09T00:18:48.343Z,101882.06
2023-04-09T00:21:16.412Z,101873.25
2023-04-09T00:23:43.288Z,101879.81
2023-04-09T00:26:09.846Z,101868.22
2023-04-09T00:28:36.566Z,101871.72
2023-04-09T00:31:03.111Z,101873.34
2023-04-09T00:33:29.618Z,101877.78
2023-04-09T00:35:56.203Z,101873.34
2023-04-09T00:38:23.041Z,101871.47
2023-04-09T00:40:50.867Z,101873.78
2023-04-09T00:43:18.286Z,101870.41
2023-04-09T00:45:45.504Z,101871.16
2023-04-09T00:48:15.931Z,101869.28
2023-04-09T00:50:42.939Z,101864.13
2023-04-09T00:53:10.837Z,101861.09
2023-04-09T00:55:40.387Z,101872.34
2023-04-09T00:58:07.276Z,101868.06
2023-04-09T01:00:33.730Z,101870.03
2023-04-09T01:03:00.898Z,101864.06
2023-04-09T01:05:36.667Z,101857.81
2023-04-09T01:08:15.004Z,101856.22
2023-04-09T01:10:58.838Z,101852.72
2023-04-09T01:13:35.580Z,101853.47
2023-04-09T01:16:03.255Z,101855.00
2023-04-09T01:18:29.677Z,101849.53
2023-04-09T01:21:10.415Z,101860.88
2023-04-09T01:23:47.578Z,101855.66
2023-04-09T01:26:26.124Z,101854.13
2023-04-09T01:28:57.084Z,101851.13
2023-04-09T01:31:39.047Z,101855.25
2023-04-09T01:34:08.727Z,101844.50
2023-04-09T01:36:37.873Z,101852.47
2023-04-09T01:39:06.161Z,101846.44
2023-04-09T01:41:34.283Z,101849.31
2023-04-09T01:44:03.187Z,101849.44
2023-04-09T01:46:31.090Z,101843.13
2023-04-09T01:48:58.193Z,101850.22
2023-04-09T01:51:24.864Z,101856.66
2023-04-09T01:53:51.583Z,101854.66
2023-04-09T01:56:18.106Z,101852.31
2023-04-09T01:58:44.512Z,101859.75
2023-04-09T02:01:24.865Z,101851.84
2023-04-09T02:03:55.977Z,101850.81
2023-04-09T02:06:37.369Z,101846.44
2023-04-09T02:09:07.456Z,101860.31
2023-04-09T02:11:35.675Z,101859.28
2023-04-09T02:14:03.901Z,101863.53
2023-04-09T02:16:32.694Z,101865.66
2023-04-09T02:19:01.308Z,101853.66
2023-04-09T02:21:29.024Z,101868.38
2023-04-09T02:23:55.992Z,101862.03
2023-04-09T02:26:23.458Z,101868.78
2023-04-09T02:28:50.579Z,101865.25
2023-04-09T02:31:17.565Z,101857.31
2023-04-09T02:33:44.062Z,101860.31
2023-04-09T02:36:13.852Z,101863.81
2023-04-09T02:38:41.819Z,101855.50
2023-04-09T02:41:08.861Z,101858.69
2023-04-09T02:43:35.620Z,101864.19
2023-04-09T02:46:02.144Z,101857.66
2023-04-09T02:48:28.567Z,101856.78
2023-04-09T02:50:55.022Z,101849.22
2023-04-09T02:53:21.591Z,101855.13
2023-04-09T02:55:48.096Z,101851.63
2023-04-09T02:58:14.551Z,101842.53
2023-04-09T03:00:41.035Z,101845.28
2023-04-09T03:03:07.709Z,101849.56
2023-04-09T03:05:34.270Z,101856.88
2023-04-09T03:08:02.682Z,101842.50
2023-04-09T03:10:29.126Z,101847.56
2023-04-09T03:12:55.561Z,101847.97
2023-04-09T03:15:21.970Z,101840.81
2023-04-09T03:17:48.444Z,101838.38
2023-04-09T03:20:14.934Z,101831.28
2023-04-09T03:22:41.368Z,101839.78
2023-04-09T03:25:08.378Z,101834.88
2023-04-09T03:27:34.968Z,101842.69
2023-04-09T03:30:01.435Z,101836.00
2023-04-09T03:32:27.921Z,101842.13
2023-04-09T03:34:54.343Z,101845.09
2023-04-09T03:37:20.842Z,101840.91
2023-04-09T03:39:47.235Z,101832.41
2023-04-09T03:42:13.664Z,101839.75
2023-04-09T03:44:40.266Z,101835.88
2023-04-09T03:47:07.752Z,101838.81
2023-04-09T03:49:37.470Z,101832.84
2023-04-09T03:52:04.125Z,101840.34
2023-04-09T03:54:30.871Z,101834.59
2023-04-09T03:56:57.359Z,101838.50
2023-04-09T03:59:24.167Z,101840.63
2023-04-09T04:01:50.817Z,101844.53
2023-04-09T04:04:17.475Z,101838.19
2023-04-09T04:06:44.034Z,101848.28
2023-04-09T04:09:10.457Z,101846.25
2023-04-09T04:11:36.913Z,101853.50
2023-04-09T04:14:03.415Z,101845.53
2023-04-09T04:16:29.880Z,101843.06
2023-04-09T04:18:56.373Z,101851.81
2023-04-09T04:21:22.862Z,101856.97
2023-04-09T04:23:49.293Z,101848.97
2023-04-09T04:26:15.742Z,101848.91
2023-04-09T04:28:42.197Z,101849.44
2023-04-09T04:31:10.649Z,101854.84
2023-04-09T04:33:39.660Z,101855.59
2023-04-09T04:36:07.822Z,101855.34
2023-04-09T04:38:35.485Z,101858.22
2023-04-09T04:41:02.916Z,101852.50
2023-04-09T04:43:29.457Z,101854.28
2023-04-09T04:45:56.406Z,101853.16
2023-04-09T04:48:22.897Z,101857.78
2023-04-09T04:50:56.961Z,101852.94
2023-04-09T04:53:23.461Z,101858.53
2023-04-09T04:55:50.569Z,101851.25
2023-04-09T04:58:17.441Z,101858.09
2023-04-09T05:00:43.924Z,101856.13
2023-04-09T05:03:10.806Z,101857.59
2023-04-09T05:05:37.389Z,101864.84
2023-04-09T05:08:04.140Z,101867.69
2023-04-09T05:10:30.833Z,101854.28
2023-04-09T05:12:57.274Z,101861.09
2023-04-09T05:15:23.702Z,101860.28
2023-04-09T05:17:50.433Z,101855.44
2023-04-09T05:20:16.893Z,101859.94
2023-04-09T05:22:43.356Z,101867.13
2023-04-09T05:25:10.762Z,101866.19
2023-04-09T05:27:37.147Z,101863.63
2023-04-09T05:30:04.235Z,101864.69
2023-04-09T05:32:30.755Z,101865.75
2023-04-09T05:34:57.289Z,101863.72
2023-04-09T05:37:23.801Z,101864.53
2023-04-09T05:39:50.370Z,101859.72
2023-04-09T05:42:17.486Z,101867.00
2023-04-09T05:44:43.880Z,101865.47
2023-04-09T05:47:10.511Z,101869.91
2023-04-09T05:49:36.953Z,101873.25
2023-04-09T05:52:03.383Z,101875.47
2023-04-09T05:54:31.667Z,101874.22
2023-04-09T05:56:58.043Z,101878.47
2023-04-09T05:59:24.507Z,101866.28
2023-04-09T06:01:51.001Z,101867.03
2023-04-09T06:04:17.646Z,101864.50
2023-04-09T06:06:44.184Z,101862.38
2023-04-09T06:09:10.697Z,101864.41
2023-04-09T06:11:37.109Z,101859.31
2023-04-09T06:14:03.527Z,101856.00
2023-04-09T06:16:29.956Z,101868.69
2023-04-09T06:18:56.975Z,101869.94
2023-04-09T06:21:23.374Z,101865.47
2023-04-09T06:23:50.514Z,101877.84
2023-04-09T06:26:17.573Z,101885.53
2023-04-09T06:28:44.036Z,101888.53
2023-04-09T06:31:10.741Z,101893.16
2023-04-09T06:33:37.213Z,101889.59
2023-04-09T06:36:03.924Z,101890.69
2023-04-09T06:38:30.372Z,101897.22
2023-04-09T06:40:57.657Z,101889.00
2023-04-09T06:43:24.176Z,101890.50
2023-04-09T06:45:50.822Z,101880.94
2023-04-09T06:48:17.354Z,101888.44
2023-04-09T06:50:44.856Z,101895.09
2023-04-09T06:53:11.443Z,101886.41
2023-04-09T06:55:37.921Z,101886.56
2023-04-09T06:58:04.465Z,101887.81
2023-04-09T07:00:31.122Z,101879.00
2023-04-09T07:02:57.835Z,101882.97
2023-04-09T07:05:24.555Z,101886.69
2023-04-09T07:07:51.166Z,101889.97
2023-04-09T07:10:17.714Z,101897.50
2023-04-09T07:12:44.169Z,101893.72
2023-04-09T07:15:10.688Z,101898.22
2023-04-09T07:17:37.206Z,101894.41
2023-04-09T07:20:04.086Z,101900.97
2023-04-09T07:22:31.133Z,101900.38
2023-04-09T07:24:57.664Z,101894.78
2023-04-09T07:27:25.928Z,101896.16
2023-04-09T07:29:55.710Z,101892.09
2023-04-09T07:32:22.532Z,101893.69
2023-04-09T07:34:52.284Z,101886.91
2023-04-09T07:37:19.510Z,101898.41
2023-04-09T07:39:46.664Z,101888.38
2023-04-09T07:42:13.702Z,101891.56
2023-04-09T07:44:40.889Z,101887.38
2023-04-09T07:47:08.330Z,101893.13
2023-04-09T07:49:40.484Z,101891.97
2023-04-09T07:52:08.019Z,101890.13
2023-04-09T07:54:35.353Z,101895.44
2023-04-09T07:57:02.735Z,101893.50
2023-04-09T07:59:29.668Z,101898.34
2023-04-09T08:01:56.617Z,101899.44
2023-04-09T08:04:23.311Z,101891.03
2023-04-09T08:06:51.126Z,101898.19
2023-04-09T08:09:18.492Z,101896.69
2023-04-09T08:11:45.822Z,101901.63
2023-04-09T08:14:15.441Z,101903.72
2023-04-09T08:16:47.594Z,101896.00
2023-04-09T08:19:16.290Z,101905.94
2023-04-09T08:21:43.486Z,101901.03
2023-04-09T08:24:11.557Z,101900.00
2023-04-09T08:26:38.864Z,101897.00
2023-04-09T08:29:05.695Z,101904.31
2023-04-09T08:31:32.389Z,101902.16
2023-04-09T08:33:58.916Z,101898.91
2023-04-09T08:36:26.323Z,101894.63
2023-04-09T08:38:55.728Z,101902.78
2023-04-09T08:41:28.599Z,101907.25
2023-04-09T08:43:58.378Z,101908.41
2023-04-09T08:46:26.443Z,101901.03
2023-04-09T08:48:53.365Z,101904.75
2023-04-09T08:51:22.633Z,101899.72
2023-04-09T08:53:55.374Z,101904.41
2023-04-09T08:56:22.194Z,101911.38
2023-04-09T08:58:49.642Z,101905.22
2023-04-09T09:01:25.362Z,101906.81
2023-04-09T09:03:56.841Z,101910.06
2023-04-09T09:06:27.121Z,101910.72
2023-04-09T09:09:06.556Z,101902.84
2023-04-09T09:11:34.690Z,101903.16
2023-04-09T09:14:09.679Z,101900.66
2023-04-09T09:16:43.233Z,101886.81
2023-04-09T09:19:31.318Z,101904.38
2023-04-09T09:21:59.396Z,101898.53
2023-04-09T09:24:26.209Z,101898.72
2023-04-09T09:26:54.329Z,101902.78
2023-04-09T09:29:21.213Z,101891.38
2023-04-09T09:31:53.016Z,101896.75
2023-04-09T09:34:21.665Z,101891.22
2023-04-09T09:36:48.619Z,101881.44
2023-04-09T09:39:17.404Z,101887.84
2023-04-09T09:41:45.376Z,101888.94
2023-04-09T09:44:29.928Z,101890.47
2023-04-09T09:46:57.496Z,101886.94
2023-04-09T09:49:24.164Z,101878.81
2023-04-09T09:51:53.177Z,101876.31
2023-04-09T09:54:25.436Z,101880.44
2023-04-09T09:56:52.909Z,101877.59
2023-04-09T09:59:19.284Z,101880.31
2023-04-09T10:01:47.483Z,101878.47
2023-04-09T10:04:16.390Z,101873.94
2023-04-09T10:06:48.144Z,101875.59
2023-04-09T10:09:15.561Z,101881.41
2023-04-09T10:11:47.970Z,101874.53
2023-04-09T10:14:16.282Z,101876.88
2023-04-09T10:16:43.340Z,101879.91
2023-04-09T10:19:14.186Z,101875.47
2023-04-09T10:21:49.725Z,101868.34
2023-04-09T10:24:16.980Z,101859.59
2023-04-09T10:26:47.059Z,101857.97
2023-04-09T10:29:15.927Z,101863.38
2023-04-09T10:31:52.132Z,101859.13
2023-04-09T10:34:21.642Z,101865.03
2023-04-09T10:37:15.226Z,101851.72
2023-04-09T10:39:45.574Z,101839.34
2023-04-09T10:42:14.875Z,101840.78
2023-04-09T10:44:44.342Z,101837.38
2023-04-09T10:47:12.212Z,101850.34
2023-04-09T10:49:42.527Z,101830.38
2023-04-09T10:52:12.594Z,101839.56
2023-04-09T10:54:39.138Z,101841.31
2023-04-09T10:57:11.340Z,101833.13
2023-04-09T10:59:41.094Z,101830.59
2023-04-09T11:02:09.650Z,101827.63
2023-04-09T11:05:06.673Z,101823.91
2023-04-09T11:07:40.392Z,101814.28
2023-04-09T11:10:07.496Z,101814.63
2023-04-09T11:12:34.018Z,101811.31
2023-04-09T11:15:00.422Z,101825.63
2023-04-09T11:17:27.485Z,101811.09
2023-04-09T11:19:55.586Z,101808.66
2023-04-09T11:22:22.300Z,101813.50
2023-04-09T11:24:50.811Z,101807.84
2023-04-09T11:27:21.603Z,101806.66
2023-04-09T11:29:48.025Z,101803.63
2023-04-09T11:32:14.539Z,101806.97
2023-04-09T11:34:40.960Z,101804.19
2023-04-09T11:37:14.074Z,101802.16
2023-04-09T11:39:40.825Z,101795.94
2023-04-09T11:44:45.960Z,101801.53
2023-04-09T11:47:14.514Z,101805.13
2023-04-09T11:49:41.835Z,101800.13
2023-04-09T11:52:08.361Z,101796.88
2023-04-09T11:54:34.795Z,101791.16
2023-04-09T11:57:03.800Z,101792.75
2023-04-09T11:59:30.847Z,101794.13
2023-04-09T12:02:01.538Z,101788.34
2023-04-09T12:04:28.109Z,101792.75
2023-04-09T12:06:58.812Z,101796.56
2023-04-09T12:09:25.640Z,101785.44
2023-04-09T12:11:52.290Z,101782.78
2023-04-09T12:14:21.659Z,101775.69
2023-04-09T12:16:52.337Z,101773.56
2023-04-09T12:19:20.391Z,101790.53
2023-04-09T12:21:49.779Z,101774.88
2023-04-09T12:24:17.563Z,101771.91
2023-04-09T12:26:46.092Z,101773.09
2023-04-09T12:29:17.052Z,101779.88
2023-04-09T12:31:44.075Z,101761.94
2023-04-09T12:34:10.595Z,101764.03
2023-04-09T12:36:38.694Z,101763.34
2023-04-09T12:39:05.424Z,101750.41
2023-04-09T12:41:31.917Z,101751.72
2023-04-09T12:43:58.467Z,101754.47
2023-04-09T12:46:25.818Z,101760.38
2023-04-09T12:48:52.549Z,101756.34
2023-04-09T12:51:19.182Z,101746.50
2023-04-09T12:53:45.987Z,101740.63
2023-04-09T12:56:12.440Z,101745.31
2023-04-09T12:58:38.938Z,101745.75
2023-04-09T13:01:05.723Z,101744.72
2023-04-09T13:03:32.448Z,101742.09
2023-04-09T13:05:59.014Z,101744.59
2023-04-09T13:08:25.493Z,101735.25
2023-04-09T13:10:51.998Z,101728.34
2023-04-09T13:13:18.500Z,101731.88
2023-04-09T13:15:46.502Z,101719.03
2023-04-09T13:18:14.175Z,101718.53
2023-04-09T13:20:41.038Z,101722.81
2023-04-09T13:23:07.594Z,101723.78
2023-04-09T13:26:01.281Z,101723.84
2023-04-09T13:28:27.782Z,101715.66
2023-04-09T13:30:57.262Z,101713.28
2023-04-09T13:33:25.829Z,101720.69
2023-04-09T13:35:52.270Z,101714.56
2023-04-09T13:38:19.152Z,101708.91
2023-04-09T13:41:20.898Z,101697.25
2023-04-09T13:43:47.324Z,101707.81
2023-04-09T13:46:19.642Z,101701.84
2023-04-09T13:48:46.096Z,101703.66
2023-04-09T13:51:12.644Z,101703.19
2023-04-09T13:53:39.056Z,101697.00
2023-04-09T13:56:05.660Z,101701.06
2023-04-09T13:58:32.081Z,101692.69
2023-04-09T14:00:59.040Z,101694.22
2023-04-09T14:03:25.971Z,101691.25
2023-04-09T14:05:52.616Z,101682.19
2023-04-09T14:08:19.038Z,101686.84
2023-04-09T14:10:45.510Z,101693.25
2023-04-09T14:13:12.233Z,101688.63
2023-04-09T14:15:39.066Z,101686.00
2023-04-09T14:18:05.579Z,101681.69
2023-04-09T14:20:33.191Z,101686.56
2023-04-09T14:22:59.640Z,101676.16
2023-04-09T14:25:26.099Z,101672.06
2023-04-09T14:27:52.700Z,101674.38
2023-04-09T14:30:19.528Z,101672.91
2023-04-09T14:32:46.051Z,101671.38
2023-04-09T14:35:12.635Z,101668.63
2023-04-09T14:37:42.159Z,101664.41
2023-04-09T14:40:36.033Z,101663.34
2023-04-09T14:43:02.472Z,101658.31
2023-04-09T14:45:30.541Z,101657.81
2023-04-09T14:47:57.370Z,101662.50
2023-04-09T14:50:23.912Z,101664.03
2023-04-09T14:52:50.679Z,101655.03
2023-04-09T14:55:17.183Z,101651.19
2023-04-09T14:57:43.759Z,101655.06
2023-04-09T15:00:12.097Z,101660.41
2023-04-09T15:02:39.210Z,101653.25
2023-04-09T15:05:06.431Z,101647.59
2023-04-09T15:07:33.432Z,101649.00
2023-04-09T15:10:00.564Z,101659.44
2023-04-09T15:12:33.403Z,101656.59
2023-04-09T15:14:59.980Z,101648.63
2023-04-09T15:17:26.597Z,101648.84
2023-04-09T15:19:53.517Z,101650.84
2023-04-09T15:22:20.592Z,101658.31
2023-04-09T15:24:47.187Z,101648.91
2023-04-09T15:27:13.588Z,101645.09
2023-04-09T15:29:40.008Z,101641.59
2023-04-09T15:32:06.549Z,101643.72
2023-04-09T15:34:33.013Z,101647.25
2023-04-09T15:36:59.468Z,101648.72
2023-04-09T15:39:28.297Z,101644.84
2023-04-09T15:41:58.323Z,101646.94
2023-04-09T15:44:25.884Z,101630.22
2023-04-09T15:46:52.323Z,101647.97
2023-04-09T15:49:19.540Z,101655.28
2023-04-09T15:51:46.066Z,101641.25
2023-04-09T15:54:12.574Z,101640.91
2023-04-09T15:56:40.160Z,101634.97
2023-04-09T15:59:08.203Z,101633.47
2023-04-09T16:01:36.276Z,101623.53
2023-04-09T16:04:03.853Z,101630.63
2023-04-09T16:06:30.409Z,101619.84
2023-04-09T16:08:57.138Z,101616.41
2023-04-09T16:11:23.746Z,101619.38
2023-04-09T16:13:50.482Z,101612.16
2023-04-09T16:16:16.970Z,101618.38
2023-04-09T16:18:43.684Z,101625.94
2023-04-09T16:21:10.561Z,101615.34
2023-04-09T16:23:37.130Z,101619.09
2023-04-09T16:26:03.864Z,101618.19
2023-04-09T16:28:30.428Z,101619.59
2023-04-09T16:30:56.927Z,101617.47
2023-04-09T16:33:23.424Z,101616.28
2023-04-09T16:35:49.858Z,101620.50
2023-04-09T16:38:16.296Z,101619.47
2023-04-09T16:40:43.915Z,101614.63
2023-04-09T16:43:10.350Z,101612.19
2023-04-09T16:45:36.791Z,101615.50
2023-04-09T16:48:06.099Z,101604.69
2023-04-09T16:50:32.905Z,101609.94
2023-04-09T16:53:01.016Z,101605.78
2023-04-09T16:55:27.430Z,101602.94
2023-04-09T16:57:55.918Z,101601.94
2023-04-09T17:00:22.451Z,101602.22
2023-04-09T17:02:49.182Z,101600.03
2023-04-09T17:05:17.839Z,101602.81
2023-04-09T17:07:44.516Z,101598.25
2023-04-09T17:10:11.411Z,101602.56
2023-04-09T17:12:38.154Z,101604.66
2023-04-09T17:15:04.964Z,101604.13
2023-04-09T17:17:31.498Z,101601.00
2023-04-09T17:19:59.858Z,101602.56
2023-04-09T17:22:26.295Z,101603.72
2023-04-09T17:24:52.849Z,101606.06
2023-04-09T17:27:19.650Z,101603.50
2023-04-09T17:29:46.106Z,101606.78
2023-04-09T17:32:12.523Z,101615.56
2023-04-09T17:34:38.944Z,101608.19
2023-04-09T17:37:05.348Z,101602.06
2023-04-09T17:39:31.806Z,101603.28
2023-04-09T17:42:00.465Z,101603.75
2023-04-09T17:44:26.965Z,101605.28
2023-04-09T17:46:53.881Z,101603.69
2023-04-09T17:49:22.369Z,101610.56
2023-04-09T17:51:48.997Z,101624.19
2023-04-09T17:54:15.546Z,101617.06
2023-04-09T17:56:42.036Z,101616.81
2023-04-09T17:59:08.586Z,101613.53
2023-04-09T18:01:35.270Z,101610.78
2023-04-09T18:04:02.056Z,101617.06
2023-04-09T18:06:29.223Z,101626.22
2023-04-09T18:08:55.734Z,101627.97
2023-04-09T18:11:23.630Z,101636.72
2023-04-09T18:13:51.126Z,101629.00
2023-04-09T18:16:19.460Z,101632.06
2023-04-09T18:18:46.208Z,101635.28
2023-04-09T18:21:12.656Z,101634.41
2023-04-09T18:23:40.385Z,101637.66
2023-04-09T18:26:07.745Z,101632.31
2023-04-09T18:28:35.092Z,101634.34
2023-04-09T18:31:02.012Z,101638.41
2023-04-09T18:33:28.561Z,101640.34
2023-04-09T18:35:55.134Z,101639.44
2023-04-09T18:38:21.775Z,101639.94
2023-04-09T18:40:48.260Z,101645.44
2023-04-09T18:43:14.718Z,101639.44
2023-04-09T18:45:41.359Z,101637.31
2023-04-09T18:48:08.792Z,101632.22
2023-04-09T18:50:35.740Z,101636.78
2023-04-09T18:53:03.630Z,101641.19
2023-04-09T18:55:30.730Z,101644.91
2023-04-09T18:57:57.483Z,101645.91
2023-04-09T19:00:24.153Z,101653.25
2023-04-09T19:02:50.996Z,101652.84
2023-04-09T19:05:17.779Z,101654.69
2023-04-09T19:07:44.267Z,101651.81
2023-04-09T19:10:10.835Z,101648.47
2023-04-09T19:12:37.885Z,101650.97
2023-04-09T19:15:04.898Z,101648.66
2023-04-09T19:17:32.217Z,101656.59
2023-04-09T19:19:58.691Z,101654.09
2023-04-09T19:22:25.169Z,101655.09
2023-04-09T19:24:51.688Z,101648.97
2023-04-09T19:27:18.635Z,101645.06
2023-04-09T19:29:46.561Z,101642.97
2023-04-09T19:32:13.363Z,101647.75
2023-04-09T19:34:39.850Z,101645.75
2023-04-09T19:37:06.669Z,101641.19
2023-04-09T19:39:33.099Z,101639.63
2023-04-09T19:41:59.806Z,101640.78
2023-04-09T19:44:26.332Z,101634.19
2023-04-09T19:46:52.800Z,101631.09
2023-04-09T19:49:19.276Z,101632.72
2023-04-09T19:51:45.786Z,101625.59
2023-04-09T19:54:12.244Z,101616.31
2023-04-09T19:56:38.672Z,101625.44
2023-04-09T19:59:05.199Z,101624.88
2023-04-09T20:01:31.796Z,101620.13
2023-04-09T20:03:58.566Z,101618.84
2023-04-09T20:06:25.962Z,101614.28
2023-04-09T20:08:54.115Z,101622.66
2023-04-09T20:11:20.903Z,101622.78
2023-04-09T20:13:47.979Z,101616.03
2023-04-09T20:16:15.299Z,101625.91
2023-04-09T20:18:41.715Z,101632.00
2023-04-09T20:21:08.758Z,101625.16
2023-04-09T20:23:35.707Z,101631.94
2023-04-09T20:26:02.693Z,101626.31
2023-04-09T20:28:29.780Z,101633.13
2023-04-09T20:30:56.571Z,101632.94
2023-04-09T20:33:23.008Z,101632.81
2023-04-09T20:35:50.395Z,101640.94
2023-04-09T20:38:20.412Z,101641.41
2023-04-09T20:40:47.184Z,101644.31
2023-04-09T20:43:13.676Z,101640.41
2023-04-09T20:45:40.176Z,101637.13
2023-04-09T20:48:06.763Z,101641.25
2023-04-09T20:50:33.296Z,101646.94
2023-04-09T20:52:59.843Z,101637.31
2023-04-09T20:55:26.461Z,101644.53
2023-04-09T20:57:55.702Z,101635.47
2023-04-09T21:00:22.694Z,101639.81
2023-04-09T21:02:49.325Z,101636.59
2023-04-09T21:05:22.619Z,101645.31
2023-04-09T21:07:50.017Z,101621.22
2023-04-09T21:10:16.520Z,101634.41
2023-04-09T21:12:42.949Z,101639.59
2023-04-09T21:15:10.098Z,101641.59
2023-04-09T21:17:36.866Z,101632.19
2023-04-09T21:20:04.462Z,101636.34
2023-04-09T21:22:31.208Z,101628.69
2023-04-09T21:24:57.679Z,101628.69
2023-04-09T21:27:24.223Z,101629.25
2023-04-09T21:29:50.946Z,101631.72
2023-04-09T21:32:17.533Z,101649.00
2023-04-09T21:34:43.959Z,101637.59
2023-04-09T21:37:11.822Z,101637.22
2023-04-09T21:39:38.480Z,101641.66
2023-04-09T21:42:06.325Z,101634.78
2023-04-09T21:44:33.669Z,101638.31
2023-04-09T21:47:01.551Z,101630.22
2023-04-09T21:49:27.968Z,101631.38
2023-04-09T21:51:55.693Z,101625.66
2023-04-09T21:54:22.243Z,101633.91
2023-04-09T21:56:48.770Z,101631.50
2023-04-09T21:59:15.440Z,101631.91
2023-04-09T22:01:42.175Z,101636.41
2023-04-09T22:04:08.832Z,101639.56
2023-04-09T22:06:35.434Z,101643.81
2023-04-09T22:09:02.468Z,101637.50
2023-04-09T22:11:29.299Z,101639.22
2023-04-09T22:13:56.769Z,101635.25
2023-04-09T22:16:24.011Z,101637.66
2023-04-09T22:18:51.743Z,101639.41
2023-04-09T22:21:18.417Z,101644.59
2023-04-09T22:23:44.983Z,101648.81
2023-04-09T22:26:11.554Z,101633.41
2023-04-09T22:28:38.430Z,101638.63
2023-04-09T22:31:05.881Z,101639.34
2023-04-09T22:33:32.734Z,101638.81
2023-04-09T22:35:59.561Z,101630.69
2023-04-09T22:38:26.205Z,101642.78
2023-04-09T22:40:52.737Z,101645.50
2023-04-09T22:43:19.654Z,101637.47
2023-04-09T22:45:55.944Z,101650.69
2023-04-09T22:48:23.036Z,101648.09
2023-04-09T22:50:50.325Z,101651.94
2023-04-09T22:53:20.746Z,101648.41
2023-04-09T22:55:50.757Z,101643.69
2023-04-09T22:58:18.239Z,101644.31
2023-04-09T23:00:44.711Z,101640.84
2023-04-09T23:03:11.343Z,101645.53
2023-04-09T23:05:38.142Z,101644.06
2023-04-09T23:08:05.125Z,101640.56
2023-04-09T23:10:32.134Z,101642.13
2023-04-09T23:12:58.602Z,101649.13
2023-04-09T23:15:25.398Z,101655.88
2023-04-09T23:17:52.216Z,101656.22
2023-04-09T23:20:18.731Z,101650.16
2023-04-09T23:22:48.398Z,101645.91
2023-04-09T23:25:15.628Z,101650.72
2023-04-09T23:27:42.678Z,101648.53
2023-04-09T23:30:10.072Z,101650.25
2023-04-09T23:32:36.728Z,101648.53
2023-04-09T23:35:04.133Z,101644.44
2023-04-09T23:37:30.985Z,101642.81
2023-04-09T23:39:57.441Z,101638.88
2023-04-09T23:42:23.979Z,101637.25
2023-04-09T23:44:50.512Z,101630.50
2023-04-09T23:47:17.436Z,101633.72
2023-04-09T23:49:44.933Z,101620.38
2023-04-09T23:52:11.445Z,101626.66
2023-04-09T23:54:37.880Z,101623.63
2023-04-09T23:57:04.298Z,101614.31
2023-04-09T23:59:33.869Z,101613.69
